sensor_id;sensor_type;location;lat;lon;timestamp;P1;durP1;ratioP1;P2;durP2;ratioP2
1563;SDS011;775;51.958;7.976;2023-03-20T00:02:09;32.27;;;12.87;;
1563;SDS011;775;51.958;7.976;2023-03-20T00:04:37;31.60;;;13.00;;
1563;SDS011;775;51.958;7.976;2023-03-20T00:07:06;27.90;;;12.23;;
1563;SDS011;775;51.958;7.976;2023-03-20T00:09:36;31.43;;;14.30;;
1563;SDS011;775;51.958;7.976;2023-03-20T00:12:03;30.20;;;12.90;;
1563;SDS011;775;51.958;7.976;2023-03-20T00:14:31;27.70;;;12.10;;
1563;SDS011;775;51.958;7.976;2023-03-20T00:16:59;31.30;;;13.43;;
1563;SDS011;775;51.958;7.976;2023-03-20T00:19:27;31.77;;;13.20;;
1563;SDS011;775;51.958;7.976;2023-03-20T00:21:55;33.30;;;13.90;;
1563;SDS011;775;51.958;7.976;2023-03-20T00:24:23;27.50;;;12.53;;
1563;SDS011;775;51.958;7.976;2023-03-20T00:26:51;32.67;;;13.77;;
1563;SDS011;775;51.958;7.976;2023-03-20T00:29:20;31.60;;;13.50;;
1563;SDS011;775;51.958;7.976;2023-03-20T00:31:47;26.50;;;13.00;;
1563;SDS011;775;51.958;7.976;2023-03-20T00:34:15;32.87;;;13.77;;
1563;SDS011;775;51.958;7.976;2023-03-20T00:36:43;35.83;;;15.77;;
1563;SDS011;775;51.958;7.976;2023-03-20T00:39:10;31.63;;;14.43;;
1563;SDS011;775;51.958;7.976;2023-03-20T00:41:40;31.43;;;14.30;;
1563;SDS011;775;51.958;7.976;2023-03-20T00:44:13;33.27;;;15.90;;
1563;SDS011;775;51.958;7.976;2023-03-20T00:46:42;32.53;;;13.70;;
1563;SDS011;775;51.958;7.976;2023-03-20T00:49:12;31.87;;;14.03;;
1563;SDS011;775;51.958;7.976;2023-03-20T00:51:40;30.10;;;12.93;;
1563;SDS011;775;51.958;7.976;2023-03-20T00:54:09;31.97;;;14.70;;
1563;SDS011;775;51.958;7.976;2023-03-20T00:56:40;40.53;;;14.90;;
1563;SDS011;775;51.958;7.976;2023-03-20T00:59:11;32.40;;;13.20;;
1563;SDS011;775;51.958;7.976;2023-03-20T01:01:40;33.33;;;13.80;;
1563;SDS011;775;51.958;7.976;2023-03-20T01:04:08;35.03;;;14.20;;
1563;SDS011;775;51.958;7.976;2023-03-20T01:06:37;32.27;;;13.77;;
1563;SDS011;775;51.958;7.976;2023-03-20T01:09:04;30.87;;;13.70;;
1563;SDS011;775;51.958;7.976;2023-03-20T01:11:31;33.43;;;13.30;;
1563;SDS011;775;51.958;7.976;2023-03-20T01:14:00;33.20;;;14.40;;
1563;SDS011;775;51.958;7.976;2023-03-20T01:16:27;30.70;;;14.17;;
1563;SDS011;775;51.958;7.976;2023-03-20T01:18:54;33.47;;;14.97;;
1563;SDS011;775;51.958;7.976;2023-03-20T01:21:21;33.37;;;14.03;;
1563;SDS011;775;51.958;7.976;2023-03-20T01:23:48;36.07;;;14.70;;
1563;SDS011;775;51.958;7.976;2023-03-20T01:26:20;35.77;;;14.50;;
1563;SDS011;775;51.958;7.976;2023-03-20T01:28:47;34.97;;;13.87;;
1563;SDS011;775;51.958;7.976;2023-03-20T01:31:16;33.13;;;15.10;;
1563;SDS011;775;51.958;7.976;2023-03-20T01:33:44;32.53;;;13.53;;
1563;SDS011;775;51.958;7.976;2023-03-20T01:36:11;34.07;;;14.00;;
1563;SDS011;775;51.958;7.976;2023-03-20T01:38:39;35.07;;;15.33;;
1563;SDS011;775;51.958;7.976;2023-03-20T01:41:08;34.80;;;15.63;;
1563;SDS011;775;51.958;7.976;2023-03-20T01:43:38;38.23;;;14.63;;
1563;SDS011;775;51.958;7.976;2023-03-20T01:46:12;39.37;;;15.33;;
1563;SDS011;775;51.958;7.976;2023-03-20T01:48:56;35.73;;;16.53;;
1563;SDS011;775;51.958;7.976;2023-03-20T01:51:25;34.87;;;15.73;;
1563;SDS011;775;51.958;7.976;2023-03-20T01:53:53;39.50;;;16.90;;
1563;SDS011;775;51.958;7.976;2023-03-20T01:56:23;34.30;;;14.87;;
1563;SDS011;775;51.958;7.976;2023-03-20T01:58:52;36.73;;;17.30;;
1563;SDS011;775;51.958;7.976;2023-03-20T02:01:22;36.93;;;15.90;;
1563;SDS011;775;51.958;7.976;2023-03-20T02:03:50;35.80;;;16.20;;
1563;SDS011;775;51.958;7.976;2023-03-20T02:06:18;33.20;;;17.70;;
1563;SDS011;775;51.958;7.976;2023-03-20T02:08:47;37.67;;;16.40;;
1563;SDS011;775;51.958;7.976;2023-03-20T02:11:15;39.77;;;17.47;;
1563;SDS011;775;51.958;7.976;2023-03-20T02:13:42;38.50;;;16.30;;
1563;SDS011;775;51.958;7.976;2023-03-20T02:16:10;36.90;;;18.27;;
1563;SDS011;775;51.958;7.976;2023-03-20T02:18:38;38.30;;;17.90;;
1563;SDS011;775;51.958;7.976;2023-03-20T02:21:29;39.07;;;18.30;;
1563;SDS011;775;51.958;7.976;2023-03-20T02:27:00;42.73;;;20.50;;
1563;SDS011;775;51.958;7.976;2023-03-20T02:29:41;38.50;;;18.73;;
1563;SDS011;775;51.958;7.976;2023-03-20T02:32:23;37.00;;;18.97;;
1563;SDS011;775;51.958;7.976;2023-03-20T02:35:07;40.83;;;21.30;;
1563;SDS011;775;51.958;7.976;2023-03-20T02:37:42;42.47;;;20.20;;
1563;SDS011;775;51.958;7.976;2023-03-20T02:40:14;47.07;;;19.53;;
1563;SDS011;775;51.958;7.976;2023-03-20T02:42:43;41.50;;;20.80;;
1563;SDS011;775;51.958;7.976;2023-03-20T02:45:13;39.40;;;20.77;;
1563;SDS011;775;51.958;7.976;2023-03-20T02:47:45;41.40;;;19.90;;
1563;SDS011;775;51.958;7.976;2023-03-20T02:50:15;43.30;;;19.90;;
1563;SDS011;775;51.958;7.976;2023-03-20T02:52:47;44.83;;;19.43;;
1563;SDS011;775;51.958;7.976;2023-03-20T02:55:19;38.87;;;20.50;;
1563;SDS011;775;51.958;7.976;2023-03-20T02:57:50;40.63;;;18.10;;
1563;SDS011;775;51.958;7.976;2023-03-20T03:00:23;44.43;;;20.70;;
1563;SDS011;775;51.958;7.976;2023-03-20T03:02:55;41.60;;;20.27;;
1563;SDS011;775;51.958;7.976;2023-03-20T03:05:24;44.60;;;20.63;;
1563;SDS011;775;51.958;7.976;2023-03-20T03:07:54;35.40;;;18.17;;
1563;SDS011;775;51.958;7.976;2023-03-20T03:10:24;39.30;;;20.03;;
1563;SDS011;775;51.958;7.976;2023-03-20T03:12:53;34.80;;;17.53;;
1563;SDS011;775;51.958;7.976;2023-03-20T03:15:24;45.00;;;19.00;;
1563;SDS011;775;51.958;7.976;2023-03-20T03:17:52;35.93;;;18.47;;
1563;SDS011;775;51.958;7.976;2023-03-20T03:20:20;37.37;;;17.80;;
1563;SDS011;775;51.958;7.976;2023-03-20T03:22:48;39.17;;;19.73;;
1563;SDS011;775;51.958;7.976;2023-03-20T03:25:17;41.40;;;19.73;;
1563;SDS011;775;51.958;7.976;2023-03-20T03:27:44;38.30;;;17.97;;
1563;SDS011;775;51.958;7.976;2023-03-20T03:30:15;42.40;;;19.63;;
1563;SDS011;775;51.958;7.976;2023-03-20T03:32:44;40.57;;;19.57;;
1563;SDS011;775;51.958;7.976;2023-03-20T03:35:13;35.33;;;17.60;;
1563;SDS011;775;51.958;7.976;2023-03-20T03:37:42;35.80;;;17.73;;
1563;SDS011;775;51.958;7.976;2023-03-20T03:40:14;37.20;;;17.77;;
1563;SDS011;775;51.958;7.976;2023-03-20T03:42:47;35.43;;;16.57;;
1563;SDS011;775;51.958;7.976;2023-03-20T03:45:19;34.30;;;15.87;;
1563;SDS011;775;51.958;7.976;2023-03-20T03:47:50;38.27;;;18.57;;
1563;SDS011;775;51.958;7.976;2023-03-20T03:50:19;32.57;;;16.13;;
1563;SDS011;775;51.958;7.976;2023-03-20T03:52:48;33.23;;;16.20;;
1563;SDS011;775;51.958;7.976;2023-03-20T03:55:18;35.50;;;16.20;;
1563;SDS011;775;51.958;7.976;2023-03-20T03:57:48;35.37;;;16.40;;
1563;SDS011;775;51.958;7.976;2023-03-20T04:00:17;33.37;;;15.60;;
1563;SDS011;775;51.958;7.976;2023-03-20T04:02:45;31.30;;;16.23;;
1563;SDS011;775;51.958;7.976;2023-03-20T04:05:13;31.97;;;15.07;;
1563;SDS011;775;51.958;7.976;2023-03-20T04:07:42;33.63;;;14.10;;
1563;SDS011;775;51.958;7.976;2023-03-20T04:10:10;30.00;;;14.87;;
1563;SDS011;775;51.958;7.976;2023-03-20T04:12:38;31.93;;;14.73;;
1563;SDS011;775;51.958;7.976;2023-03-20T04:15:07;32.40;;;13.77;;
1563;SDS011;775;51.958;7.976;2023-03-20T04:17:34;31.00;;;15.20;;
1563;SDS011;775;51.958;7.976;2023-03-20T04:20:01;30.80;;;13.90;;
1563;SDS011;775;51.958;7.976;2023-03-20T04:22:29;28.93;;;14.73;;
1563;SDS011;775;51.958;7.976;2023-03-20T04:24:58;38.57;;;14.87;;
1563;SDS011;775;51.958;7.976;2023-03-20T04:27:26;29.70;;;15.43;;
1563;SDS011;775;51.958;7.976;2023-03-20T04:29:53;33.77;;;14.93;;
1563;SDS011;775;51.958;7.976;2023-03-20T04:32:21;30.20;;;14.07;;
1563;SDS011;775;51.958;7.976;2023-03-20T04:34:48;30.27;;;16.87;;
1563;SDS011;775;51.958;7.976;2023-03-20T04:37:16;32.80;;;15.90;;
1563;SDS011;775;51.958;7.976;2023-03-20T04:39:43;32.40;;;17.10;;
1563;SDS011;775;51.958;7.976;2023-03-20T04:42:10;34.90;;;16.47;;
1563;SDS011;775;51.958;7.976;2023-03-20T04:44:37;35.00;;;15.97;;
1563;SDS011;775;51.958;7.976;2023-03-20T04:47:04;30.67;;;16.07;;
1563;SDS011;775;51.958;7.976;2023-03-20T04:49:33;32.27;;;15.90;;
1563;SDS011;775;51.958;7.976;2023-03-20T04:52:00;32.67;;;16.10;;
1563;SDS011;775;51.958;7.976;2023-03-20T04:54:27;31.17;;;16.10;;
1563;SDS011;775;51.958;7.976;2023-03-20T04:56:55;34.83;;;16.10;;
1563;SDS011;775;51.958;7.976;2023-03-20T04:59:22;34.73;;;17.47;;
1563;SDS011;775;51.958;7.976;2023-03-20T05:01:49;29.03;;;16.00;;
1563;SDS011;775;51.958;7.976;2023-03-20T05:04:16;30.00;;;14.77;;
1563;SDS011;775;51.958;7.976;2023-03-20T05:06:44;31.10;;;15.83;;
1563;SDS011;775;51.958;7.976;2023-03-20T05:09:13;30.10;;;15.17;;
1563;SDS011;775;51.958;7.976;2023-03-20T05:11:40;29.10;;;13.50;;
1563;SDS011;775;51.958;7.976;2023-03-20T05:14:07;27.30;;;14.40;;
1563;SDS011;775;51.958;7.976;2023-03-20T05:16:36;32.27;;;16.13;;
1563;SDS011;775;51.958;7.976;2023-03-20T05:19:03;26.63;;;13.70;;
1563;SDS011;775;51.958;7.976;2023-03-20T05:21:30;31.13;;;14.13;;
1563;SDS011;775;51.958;7.976;2023-03-20T05:23:58;28.30;;;14.53;;
1563;SDS011;775;51.958;7.976;2023-03-20T05:26:25;32.00;;;15.20;;
1563;SDS011;775;51.958;7.976;2023-03-20T05:28:52;29.80;;;13.80;;
1563;SDS011;775;51.958;7.976;2023-03-20T05:31:19;30.30;;;15.47;;
1563;SDS011;775;51.958;7.976;2023-03-20T05:33:46;30.07;;;14.67;;
1563;SDS011;775;51.958;7.976;2023-03-20T05:36:13;29.47;;;13.53;;
1563;SDS011;775;51.958;7.976;2023-03-20T05:38:41;30.97;;;15.70;;
1563;SDS011;775;51.958;7.976;2023-03-20T05:41:09;30.00;;;12.73;;
1563;SDS011;775;51.958;7.976;2023-03-20T05:43:36;27.40;;;13.80;;
1563;SDS011;775;51.958;7.976;2023-03-20T05:46:03;28.27;;;12.60;;
1563;SDS011;775;51.958;7.976;2023-03-20T05:48:31;29.40;;;13.50;;
1563;SDS011;775;51.958;7.976;2023-03-20T05:50:58;29.60;;;13.83;;
1563;SDS011;775;51.958;7.976;2023-03-20T05:53:25;27.33;;;13.17;;
1563;SDS011;775;51.958;7.976;2023-03-20T05:55:52;27.37;;;12.70;;
1563;SDS011;775;51.958;7.976;2023-03-20T05:58:20;24.73;;;12.10;;
1563;SDS011;775;51.958;7.976;2023-03-20T06:00:47;26.10;;;12.27;;
1563;SDS011;775;51.958;7.976;2023-03-20T06:03:14;28.97;;;13.50;;
1563;SDS011;775;51.958;7.976;2023-03-20T06:05:42;30.43;;;13.37;;
1563;SDS011;775;51.958;7.976;2023-03-20T06:08:10;29.60;;;13.70;;
1563;SDS011;775;51.958;7.976;2023-03-20T06:10:37;26.63;;;11.83;;
1563;SDS011;775;51.958;7.976;2023-03-20T06:13:04;30.43;;;14.07;;
1563;SDS011;775;51.958;7.976;2023-03-20T06:15:32;27.13;;;12.87;;
1563;SDS011;775;51.958;7.976;2023-03-20T06:17:59;24.53;;;12.10;;
1563;SDS011;775;51.958;7.976;2023-03-20T06:20:27;26.77;;;13.03;;
1563;SDS011;775;51.958;7.976;2023-03-20T06:22:54;26.70;;;13.30;;
1563;SDS011;775;51.958;7.976;2023-03-20T06:25:21;24.93;;;11.60;;
1563;SDS011;775;51.958;7.976;2023-03-20T06:27:48;26.40;;;12.97;;
1563;SDS011;775;51.958;7.976;2023-03-20T06:30:16;26.60;;;12.40;;
1563;SDS011;775;51.958;7.976;2023-03-20T06:32:44;24.80;;;11.57;;
1563;SDS011;775;51.958;7.976;2023-03-20T06:35:12;25.47;;;11.07;;
1563;SDS011;775;51.958;7.976;2023-03-20T06:37:39;25.40;;;11.40;;
1563;SDS011;775;51.958;7.976;2023-03-20T06:40:07;22.67;;;10.70;;
1563;SDS011;775;51.958;7.976;2023-03-20T06:42:34;22.73;;;10.30;;
1563;SDS011;775;51.958;7.976;2023-03-20T06:45:02;25.33;;;10.83;;
1563;SDS011;775;51.958;7.976;2023-03-20T06:47:29;23.43;;;10.77;;
1563;SDS011;775;51.958;7.976;2023-03-20T06:49:57;22.30;;;9.83;;
1563;SDS011;775;51.958;7.976;2023-03-20T06:52:25;23.50;;;9.60;;
1563;SDS011;775;51.958;7.976;2023-03-20T06:54:52;21.67;;;9.37;;
1563;SDS011;775;51.958;7.976;2023-03-20T06:57:20;21.50;;;9.20;;
1563;SDS011;775;51.958;7.976;2023-03-20T06:59:47;23.33;;;10.40;;
1563;SDS011;775;51.958;7.976;2023-03-20T07:02:14;23.90;;;11.10;;
1563;SDS011;775;51.958;7.976;2023-03-20T07:04:42;26.10;;;11.77;;
1563;SDS011;775;51.958;7.976;2023-03-20T07:07:10;25.10;;;11.00;;
1563;SDS011;775;51.958;7.976;2023-03-20T07:09:38;23.30;;;11.00;;
1563;SDS011;775;51.958;7.976;2023-03-20T07:12:08;25.30;;;10.90;;
1563;SDS011;775;51.958;7.976;2023-03-20T07:14:37;22.47;;;9.77;;
1563;SDS011;775;51.958;7.976;2023-03-20T07:17:05;22.53;;;10.30;;
1563;SDS011;775;51.958;7.976;2023-03-20T07:19:33;22.57;;;10.43;;
1563;SDS011;775;51.958;7.976;2023-03-20T07:22:02;25.80;;;10.77;;
1563;SDS011;775;51.958;7.976;2023-03-20T07:24:31;25.40;;;10.30;;
1563;SDS011;775;51.958;7.976;2023-03-20T07:26:59;21.07;;;9.33;;
1563;SDS011;775;51.958;7.976;2023-03-20T07:29:26;21.20;;;9.30;;
1563;SDS011;775;51.958;7.976;2023-03-20T07:31:53;25.63;;;10.27;;
1563;SDS011;775;51.958;7.976;2023-03-20T07:34:21;20.33;;;8.13;;
1563;SDS011;775;51.958;7.976;2023-03-20T07:36:48;24.00;;;9.80;;
1563;SDS011;775;51.958;7.976;2023-03-20T07:39:15;23.50;;;10.30;;
1563;SDS011;775;51.958;7.976;2023-03-20T07:41:43;21.30;;;9.50;;
1563;SDS011;775;51.958;7.976;2023-03-20T07:44:10;20.53;;;8.63;;
1563;SDS011;775;51.958;7.976;2023-03-20T07:46:38;18.90;;;7.97;;
1563;SDS011;775;51.958;7.976;2023-03-20T07:49:05;23.03;;;8.20;;
1563;SDS011;775;51.958;7.976;2023-03-20T07:51:33;20.50;;;7.77;;
1563;SDS011;775;51.958;7.976;2023-03-20T07:54:00;19.17;;;7.77;;
1563;SDS011;775;51.958;7.976;2023-03-20T07:56:27;18.63;;;7.50;;
1563;SDS011;775;51.958;7.976;2023-03-20T07:58:56;19.27;;;7.20;;
1563;SDS011;775;51.958;7.976;2023-03-20T08:01:23;18.83;;;7.63;;
1563;SDS011;775;51.958;7.976;2023-03-20T08:03:50;18.83;;;7.40;;
1563;SDS011;775;51.958;7.976;2023-03-20T08:06:17;17.83;;;7.07;;
1563;SDS011;775;51.958;7.976;2023-03-20T08:08:44;18.90;;;6.47;;
1563;SDS011;775;51.958;7.976;2023-03-20T08:11:13;19.40;;;7.07;;
1563;SDS011;775;51.958;7.976;2023-03-20T08:13:40;19.03;;;7.00;;
1563;SDS011;775;51.958;7.976;2023-03-20T08:16:09;19.23;;;6.87;;
1563;SDS011;775;51.958;7.976;2023-03-20T08:18:36;17.90;;;7.80;;
1563;SDS011;775;51.958;7.976;2023-03-20T08:21:03;19.70;;;7.70;;
1563;SDS011;775;51.958;7.976;2023-03-20T08:23:31;19.20;;;7.07;;
1563;SDS011;775;51.958;7.976;2023-03-20T08:25:58;25.60;;;8.60;;
1563;SDS011;775;51.958;7.976;2023-03-20T08:28:25;19.23;;;7.07;;
1563;SDS011;775;51.958;7.976;2023-03-20T08:30:52;17.40;;;7.00;;
1563;SDS011;775;51.958;7.976;2023-03-20T08:33:21;17.83;;;7.00;;
1563;SDS011;775;51.958;7.976;2023-03-20T08:35:54;19.97;;;8.30;;
1563;SDS011;775;51.958;7.976;2023-03-20T08:38:22;21.20;;;8.00;;
1563;SDS011;775;51.958;7.976;2023-03-20T08:40:49;20.87;;;8.13;;
1563;SDS011;775;51.958;7.976;2023-03-20T08:43:16;24.20;;;9.10;;
1563;SDS011;775;51.958;7.976;2023-03-20T08:45:43;20.33;;;8.37;;
1563;SDS011;775;51.958;7.976;2023-03-20T08:48:10;20.60;;;8.27;;
1563;SDS011;775;51.958;7.976;2023-03-20T08:50:39;24.20;;;8.57;;
1563;SDS011;775;51.958;7.976;2023-03-20T08:53:06;21.10;;;8.27;;
1563;SDS011;775;51.958;7.976;2023-03-20T08:55:33;25.77;;;9.57;;
1563;SDS011;775;51.958;7.976;2023-03-20T08:58:02;21.77;;;10.43;;
1563;SDS011;775;51.958;7.976;2023-03-20T09:00:29;23.70;;;8.63;;
1563;SDS011;775;51.958;7.976;2023-03-20T09:02:56;26.63;;;9.87;;
1563;SDS011;775;51.958;7.976;2023-03-20T09:05:23;20.10;;;8.70;;
1563;SDS011;775;51.958;7.976;2023-03-20T09:07:51;21.70;;;8.77;;
1563;SDS011;775;51.958;7.976;2023-03-20T09:10:19;19.90;;;8.00;;
1563;SDS011;775;51.958;7.976;2023-03-20T09:12:46;22.70;;;9.00;;
1563;SDS011;775;51.958;7.976;2023-03-20T09:15:13;19.40;;;7.90;;
1563;SDS011;775;51.958;7.976;2023-03-20T09:17:40;18.60;;;7.67;;
1563;SDS011;775;51.958;7.976;2023-03-20T09:20:07;21.10;;;8.53;;
1563;SDS011;775;51.958;7.976;2023-03-20T09:22:35;18.50;;;8.30;;
1563;SDS011;775;51.958;7.976;2023-03-20T09:25:06;19.63;;;7.80;;
1563;SDS011;775;51.958;7.976;2023-03-20T09:27:34;21.00;;;7.30;;
1563;SDS011;775;51.958;7.976;2023-03-20T09:30:01;20.53;;;7.77;;
1563;SDS011;775;51.958;7.976;2023-03-20T09:32:28;18.13;;;7.07;;
1563;SDS011;775;51.958;7.976;2023-03-20T09:34:55;17.87;;;7.03;;
1563;SDS011;775;51.958;7.976;2023-03-20T09:37:23;23.33;;;6.80;;
1563;SDS011;775;51.958;7.976;2023-03-20T09:39:50;16.70;;;6.20;;
1563;SDS011;775;51.958;7.976;2023-03-20T09:42:22;20.90;;;6.87;;
1563;SDS011;775;51.958;7.976;2023-03-20T09:44:53;18.07;;;6.00;;
1563;SDS011;775;51.958;7.976;2023-03-20T09:47:22;16.20;;;6.77;;
1563;SDS011;775;51.958;7.976;2023-03-20T09:49:58;16.93;;;6.23;;
1563;SDS011;775;51.958;7.976;2023-03-20T09:52:29;18.00;;;7.33;;
1563;SDS011;775;51.958;7.976;2023-03-20T09:54:58;18.13;;;5.77;;
1563;SDS011;775;51.958;7.976;2023-03-20T09:57:31;16.43;;;6.00;;
1563;SDS011;775;51.958;7.976;2023-03-20T10:00:02;18.70;;;6.03;;
1563;SDS011;775;51.958;7.976;2023-03-20T10:02:35;15.23;;;5.90;;
1563;SDS011;775;51.958;7.976;2023-03-20T10:05:05;15.83;;;5.60;;
1563;SDS011;775;51.958;7.976;2023-03-20T10:07:38;14.53;;;5.13;;
1563;SDS011;775;51.958;7.976;2023-03-20T10:10:06;21.00;;;5.53;;
1563;SDS011;775;51.958;7.976;2023-03-20T10:12:42;15.63;;;5.03;;
1563;SDS011;775;51.958;7.976;2023-03-20T10:15:15;15.93;;;5.77;;
1563;SDS011;775;51.958;7.976;2023-03-20T10:17:46;18.03;;;4.30;;
1563;SDS011;775;51.958;7.976;2023-03-20T10:20:21;14.43;;;4.97;;
1563;SDS011;775;51.958;7.976;2023-03-20T10:22:52;14.87;;;4.73;;
1563;SDS011;775;51.958;7.976;2023-03-20T10:25:22;15.37;;;4.97;;
1563;SDS011;775;51.958;7.976;2023-03-20T10:27:54;14.57;;;4.60;;
1563;SDS011;775;51.958;7.976;2023-03-20T10:30:27;15.50;;;3.70;;
1563;SDS011;775;51.958;7.976;2023-03-20T10:33:02;15.30;;;3.33;;
1563;SDS011;775;51.958;7.976;2023-03-20T10:35:34;13.43;;;3.40;;
1563;SDS011;775;51.958;7.976;2023-03-20T10:38:11;13.97;;;3.63;;
1563;SDS011;775;51.958;7.976;2023-03-20T10:40:40;14.00;;;3.10;;
1563;SDS011;775;51.958;7.976;2023-03-20T10:43:13;13.63;;;3.53;;
1563;SDS011;775;51.958;7.976;2023-03-20T10:45:42;13.30;;;3.10;;
1563;SDS011;775;51.958;7.976;2023-03-20T10:48:13;17.20;;;2.97;;
1563;SDS011;775;51.958;7.976;2023-03-20T10:50:42;13.27;;;3.40;;
1563;SDS011;775;51.958;7.976;2023-03-20T10:53:11;13.70;;;2.70;;
1563;SDS011;775;51.958;7.976;2023-03-20T10:55:42;16.53;;;2.70;;
1563;SDS011;775;51.958;7.976;2023-03-20T10:58:13;13.50;;;2.90;;
1563;SDS011;775;51.958;7.976;2023-03-20T11:00:42;15.70;;;2.80;;
1563;SDS011;775;51.958;7.976;2023-03-20T11:03:14;11.97;;;2.00;;
1563;SDS011;775;51.958;7.976;2023-03-20T11:05:44;20.40;;;3.57;;
1563;SDS011;775;51.958;7.976;2023-03-20T11:08:11;14.50;;;3.37;;
1563;SDS011;775;51.958;7.976;2023-03-20T11:10:39;11.83;;;2.77;;
1563;SDS011;775;51.958;7.976;2023-03-20T11:13:15;13.00;;;2.90;;
1563;SDS011;775;51.958;7.976;2023-03-20T11:15:46;12.13;;;2.83;;
1563;SDS011;775;51.958;7.976;2023-03-20T11:18:13;12.80;;;2.87;;
1563;SDS011;775;51.958;7.976;2023-03-20T11:20:44;14.30;;;3.10;;
1563;SDS011;775;51.958;7.976;2023-03-20T11:23:13;13.90;;;3.00;;
1563;SDS011;775;51.958;7.976;2023-03-20T11:25:45;16.33;;;2.90;;
1563;SDS011;775;51.958;7.976;2023-03-20T11:28:23;11.43;;;2.80;;
1563;SDS011;775;51.958;7.976;2023-03-20T11:30:55;11.83;;;2.80;;
1563;SDS011;775;51.958;7.976;2023-03-20T11:33:24;17.53;;;3.30;;
1563;SDS011;775;51.958;7.976;2023-03-20T11:35:52;12.90;;;2.53;;
1563;SDS011;775;51.958;7.976;2023-03-20T11:38:20;12.90;;;2.77;;
1563;SDS011;775;51.958;7.976;2023-03-20T11:40:48;13.50;;;2.83;;
1563;SDS011;775;51.958;7.976;2023-03-20T11:43:18;12.50;;;2.43;;
1563;SDS011;775;51.958;7.976;2023-03-20T11:45:48;12.93;;;2.70;;
1563;SDS011;775;51.958;7.976;2023-03-20T11:48:16;12.17;;;2.23;;
1563;SDS011;775;51.958;7.976;2023-03-20T11:50:45;14.03;;;2.80;;
1563;SDS011;775;51.958;7.976;2023-03-20T11:53:18;12.43;;;2.50;;
1563;SDS011;775;51.958;7.976;2023-03-20T11:55:56;11.07;;;2.40;;
1563;SDS011;775;51.958;7.976;2023-03-20T11:58:24;14.70;;;2.93;;
1563;SDS011;775;51.958;7.976;2023-03-20T12:00:55;15.50;;;2.80;;
1563;SDS011;775;51.958;7.976;2023-03-20T12:03:42;16.23;;;3.67;;
1563;SDS011;775;51.958;7.976;2023-03-20T12:06:12;12.83;;;3.50;;
1563;SDS011;775;51.958;7.976;2023-03-20T12:08:41;13.70;;;3.57;;
1563;SDS011;775;51.958;7.976;2023-03-20T12:11:15;14.37;;;4.00;;
1563;SDS011;775;51.958;7.976;2023-03-20T12:13:44;12.70;;;3.47;;
1563;SDS011;775;51.958;7.976;2023-03-20T12:16:14;14.67;;;3.90;;
1563;SDS011;775;51.958;7.976;2023-03-20T12:18:44;15.93;;;3.70;;
1563;SDS011;775;51.958;7.976;2023-03-20T12:21:13;14.93;;;3.67;;
1563;SDS011;775;51.958;7.976;2023-03-20T12:23:42;13.30;;;3.90;;
1563;SDS011;775;51.958;7.976;2023-03-20T12:26:11;13.60;;;3.60;;
1563;SDS011;775;51.958;7.976;2023-03-20T12:28:40;14.60;;;4.00;;
1563;SDS011;775;51.958;7.976;2023-03-20T12:31:15;13.63;;;4.13;;
1563;SDS011;775;51.958;7.976;2023-03-20T12:33:46;13.30;;;3.67;;
1563;SDS011;775;51.958;7.976;2023-03-20T12:36:16;13.03;;;3.00;;
1563;SDS011;775;51.958;7.976;2023-03-20T12:38:43;16.23;;;4.50;;
1563;SDS011;775;51.958;7.976;2023-03-20T12:41:12;12.60;;;3.57;;
1563;SDS011;775;51.958;7.976;2023-03-20T12:43:43;12.87;;;3.27;;
1563;SDS011;775;51.958;7.976;2023-03-20T12:46:17;12.00;;;3.80;;
1563;SDS011;775;51.958;7.976;2023-03-20T12:48:52;13.93;;;5.40;;
1563;SDS011;775;51.958;7.976;2023-03-20T12:51:23;13.20;;;3.17;;
1563;SDS011;775;51.958;7.976;2023-03-20T12:53:54;13.60;;;3.40;;
1563;SDS011;775;51.958;7.976;2023-03-20T12:56:29;18.00;;;3.50;;
1563;SDS011;775;51.958;7.976;2023-03-20T12:58:58;14.03;;;2.90;;
1563;SDS011;775;51.958;7.976;2023-03-20T13:01:28;15.70;;;3.73;;
1563;SDS011;775;51.958;7.976;2023-03-20T13:06:43;15.33;;;3.80;;
1563;SDS011;775;51.958;7.976;2023-03-20T13:09:34;13.90;;;4.20;;
1563;SDS011;775;51.958;7.976;2023-03-20T13:12:08;14.43;;;3.70;;
1563;SDS011;775;51.958;7.976;2023-03-20T13:14:40;16.30;;;3.90;;
1563;SDS011;775;51.958;7.976;2023-03-20T13:17:13;16.67;;;4.23;;
1563;SDS011;775;51.958;7.976;2023-03-20T13:19:44;15.20;;;3.83;;
1563;SDS011;775;51.958;7.976;2023-03-20T13:22:16;15.23;;;4.30;;
1563;SDS011;775;51.958;7.976;2023-03-20T13:24:46;15.60;;;5.27;;
1563;SDS011;775;51.958;7.976;2023-03-20T13:27:20;13.00;;;4.57;;
1563;SDS011;775;51.958;7.976;2023-03-20T13:29:51;15.10;;;5.60;;
1563;SDS011;775;51.958;7.976;2023-03-20T13:32:26;15.43;;;4.90;;
1563;SDS011;775;51.958;7.976;2023-03-20T13:35:01;15.90;;;6.00;;
1563;SDS011;775;51.958;7.976;2023-03-20T13:37:32;14.80;;;5.10;;
1563;SDS011;775;51.958;7.976;2023-03-20T13:40:03;15.97;;;4.93;;
1563;SDS011;775;51.958;7.976;2023-03-20T13:42:33;17.33;;;6.53;;
1563;SDS011;775;51.958;7.976;2023-03-20T13:45:04;14.10;;;5.40;;
1563;SDS011;775;51.958;7.976;2023-03-20T13:47:33;14.80;;;6.40;;
1563;SDS011;775;51.958;7.976;2023-03-20T13:50:04;15.50;;;5.60;;
1563;SDS011;775;51.958;7.976;2023-03-20T13:52:34;16.30;;;5.80;;
1563;SDS011;775;51.958;7.976;2023-03-20T13:55:13;16.70;;;5.40;;
1563;SDS011;775;51.958;7.976;2023-03-20T13:57:44;13.90;;;5.10;;
1563;SDS011;775;51.958;7.976;2023-03-20T14:00:17;15.97;;;5.60;;
1563;SDS011;775;51.958;7.976;2023-03-20T14:02:54;15.03;;;5.00;;
1563;SDS011;775;51.958;7.976;2023-03-20T14:05:27;15.37;;;6.23;;
1563;SDS011;775;51.958;7.976;2023-03-20T14:07:56;16.13;;;5.30;;
1563;SDS011;775;51.958;7.976;2023-03-20T14:10:34;16.20;;;5.27;;
1563;SDS011;775;51.958;7.976;2023-03-20T14:13:03;16.10;;;4.83;;
1563;SDS011;775;51.958;7.976;2023-03-20T14:15:31;18.67;;;5.77;;
1563;SDS011;775;51.958;7.976;2023-03-20T14:18:03;13.87;;;5.50;;
1563;SDS011;775;51.958;7.976;2023-03-20T14:20:31;14.03;;;6.33;;
1563;SDS011;775;51.958;7.976;2023-03-20T14:22:58;15.87;;;5.60;;
1563;SDS011;775;51.958;7.976;2023-03-20T14:25:25;17.30;;;5.70;;
1563;SDS011;775;51.958;7.976;2023-03-20T14:27:56;15.10;;;4.93;;
1563;SDS011;775;51.958;7.976;2023-03-20T14:30:36;14.50;;;4.70;;
1563;SDS011;775;51.958;7.976;2023-03-20T14:33:06;14.37;;;5.50;;
1563;SDS011;775;51.958;7.976;2023-03-20T14:35:35;13.70;;;5.50;;
1563;SDS011;775;51.958;7.976;2023-03-20T14:38:18;14.20;;;5.50;;
1563;SDS011;775;51.958;7.976;2023-03-20T14:40:48;12.70;;;4.80;;
1563;SDS011;775;51.958;7.976;2023-03-20T14:43:21;14.03;;;4.73;;
1563;SDS011;775;51.958;7.976;2023-03-20T14:45:53;15.00;;;5.33;;
1563;SDS011;775;51.958;7.976;2023-03-20T14:48:26;18.37;;;5.27;;
1563;SDS011;775;51.958;7.976;2023-03-20T14:51:00;14.67;;;4.37;;
1563;SDS011;775;51.958;7.976;2023-03-20T14:53:28;15.77;;;5.17;;
1563;SDS011;775;51.958;7.976;2023-03-20T14:56:03;15.53;;;4.33;;
1563;SDS011;775;51.958;7.976;2023-03-20T14:58:36;14.53;;;4.60;;
1563;SDS011;775;51.958;7.976;2023-03-20T15:01:08;16.00;;;4.23;;
1563;SDS011;775;51.958;7.976;2023-03-20T15:03:37;12.70;;;4.10;;
1563;SDS011;775;51.958;7.976;2023-03-20T15:06:06;16.23;;;4.53;;
1563;SDS011;775;51.958;7.976;2023-03-20T15:08:34;14.70;;;4.60;;
1563;SDS011;775;51.958;7.976;2023-03-20T15:11:04;14.67;;;4.53;;
1563;SDS011;775;51.958;7.976;2023-03-20T15:13:33;14.03;;;4.50;;
1563;SDS011;775;51.958;7.976;2023-03-20T15:16:03;15.00;;;5.13;;
1563;SDS011;775;51.958;7.976;2023-03-20T15:18:34;15.03;;;5.23;;
1563;SDS011;775;51.958;7.976;2023-03-20T15:21:08;15.57;;;6.70;;
1563;SDS011;775;51.958;7.976;2023-03-20T15:23:39;15.67;;;5.67;;
1563;SDS011;775;51.958;7.976;2023-03-20T15:26:06;17.20;;;6.20;;
1563;SDS011;775;51.958;7.976;2023-03-20T15:28:34;14.10;;;5.10;;